createdAt,value
2019-02-17T00:00:04.795Z,28.23
2019-02-17T00:02:32.648Z,27.13
2019-02-17T00:05:00.719Z,23.73
2019-02-17T00:07:28.693Z,28.07
2019-02-17T00:09:56.548Z,29.70
2019-02-17T00:12:24.326Z,32.13
2019-02-17T00:14:52.136Z,43.95
2019-02-17T00:17:19.969Z,38.55
2019-02-17T00:19:47.920Z,37.80
2019-02-17T00:22:15.701Z,35.60
2019-02-17T00:24:43.574Z,37.35
2019-02-17T00:27:30.865Z,37.95
2019-02-17T00:29:58.683Z,36.30
2019-02-17T00:32:26.496Z,34.33
2019-02-17T00:34:55.677Z,34.95
2019-02-17T00:37:23.461Z,33.50
2019-02-17T00:39:51.248Z,35.68
2019-02-17T00:42:19.274Z,33.40
2019-02-17T00:44:47.113Z,30.27
2019-02-17T00:47:15.126Z,35.50
2019-02-17T00:49:42.921Z,36.58
2019-02-17T00:52:10.709Z,33.70
2019-02-17T00:54:38.510Z,33.42
2019-02-17T00:57:05.960Z,31.75
2019-02-17T00:59:33.973Z,30.70
2019-02-17T01:02:02.052Z,31.57
2019-02-17T01:04:29.888Z,33.58
2019-02-17T01:06:57.795Z,34.45
2019-02-17T01:09:25.641Z,34.75
2019-02-17T01:11:53.402Z,33.42
2019-02-17T01:14:21.247Z,33.65
2019-02-17T01:16:49.092Z,31.35
2019-02-17T01:19:22.312Z,29.95
2019-02-17T01:21:50.132Z,31.77
2019-02-17T01:24:17.980Z,31.75
2019-02-17T01:26:45.774Z,29.87
2019-02-17T01:29:20.130Z,31.85
2019-02-17T01:31:43.209Z,30.55
2019-02-17T01:34:11.185Z,32.00
2019-02-17T01:36:39.005Z,29.95
2019-02-17T01:39:12.038Z,27.02
2019-02-17T01:41:39.861Z,24.50
2019-02-17T01:44:07.671Z,26.57
2019-02-17T01:46:35.455Z,29.98
2019-02-17T01:49:03.343Z,27.40
2019-02-17T01:51:31.125Z,25.15
2019-02-17T01:53:58.987Z,23.25
2019-02-17T01:56:26.776Z,26.35
2019-02-17T01:59:14.295Z,29.65
2019-02-17T02:01:42.106Z,25.43
2019-02-17T02:04:09.915Z,23.62
2019-02-17T02:06:37.736Z,24.60
2019-02-17T02:09:08.977Z,22.87
2019-02-17T02:11:56.255Z,22.42
2019-02-17T02:14:24.031Z,21.82
2019-02-17T02:16:51.884Z,21.07
2019-02-17T02:19:19.820Z,20.37
2019-02-17T02:21:47.616Z,23.02
2019-02-17T02:24:15.499Z,31.97
2019-02-17T02:26:43.282Z,24.23
2019-02-17T02:29:16.182Z,25.35
2019-02-17T02:31:43.969Z,23.02
2019-02-17T02:34:14.022Z,22.10
2019-02-17T02:36:42.194Z,21.85
2019-02-17T02:39:10.270Z,22.07
2019-02-17T02:41:38.066Z,23.52
2019-02-17T02:44:05.908Z,21.75
2019-02-17T02:46:33.695Z,22.82
2019-02-17T02:49:01.582Z,28.87
2019-02-17T02:51:29.420Z,26.68
2019-02-17T02:53:57.226Z,27.70
2019-02-17T02:56:25.045Z,24.85
2019-02-17T02:58:52.995Z,26.62
2019-02-17T03:01:20.933Z,26.50
2019-02-17T03:03:48.739Z,24.45
2019-02-17T03:06:29.953Z,25.00
2019-02-17T03:08:58.018Z,25.05
2019-02-17T03:11:25.812Z,26.20
2019-02-17T03:13:55.665Z,32.58
2019-02-17T03:16:23.524Z,28.07
2019-02-17T03:18:51.418Z,27.42
2019-02-17T03:21:19.222Z,24.10
2019-02-17T03:23:48.489Z,20.40
2019-02-17T03:26:16.348Z,23.65
2019-02-17T03:28:44.261Z,23.55
2019-02-17T03:31:12.059Z,27.45
2019-02-17T03:33:39.841Z,46.37
2019-02-17T03:36:07.640Z,80.75
2019-02-17T03:38:40.644Z,93.97
2019-02-17T03:41:08.397Z,89.60
2019-02-17T03:43:36.215Z,91.05
2019-02-17T03:46:03.978Z,129.78
2019-02-17T03:48:31.936Z,149.90
2019-02-17T03:50:59.727Z,100.07
2019-02-17T03:53:27.570Z,85.15
2019-02-17T03:55:55.372Z,136.92
2019-02-17T03:58:23.363Z,122.17
2019-02-17T04:00:51.114Z,90.40
2019-02-17T04:03:18.924Z,172.43
2019-02-17T04:05:46.674Z,239.02
2019-02-17T04:08:14.479Z,292.32
2019-02-17T04:10:42.239Z,189.13
2019-02-17T04:13:10.056Z,258.27
2019-02-17T04:15:37.892Z,190.97
2019-02-17T04:18:05.731Z,193.97
2019-02-17T04:20:33.521Z,216.00
2019-02-17T04:23:01.310Z,146.37
2019-02-17T04:25:29.154Z,180.93
2019-02-17T04:27:56.926Z,79.62
2019-02-17T04:30:29.342Z,119.53
2019-02-17T04:32:54.422Z,111.83
2019-02-17T04:35:22.235Z,175.87
2019-02-17T04:37:50.102Z,189.60
2019-02-17T04:40:17.940Z,109.92
2019-02-17T04:42:45.756Z,224.85
2019-02-17T04:45:15.443Z,90.53
2019-02-17T04:47:43.227Z,154.55
2019-02-17T04:50:11.021Z,60.65
2019-02-17T04:52:38.811Z,112.45
2019-02-17T04:55:06.942Z,144.30
2019-02-17T04:57:34.735Z,88.20
2019-02-17T05:00:02.904Z,120.80
2019-02-17T05:02:30.699Z,63.05
2019-02-17T05:04:58.489Z,53.20
2019-02-17T05:07:26.303Z,86.95
2019-02-17T05:09:59.270Z,50.70
2019-02-17T05:12:27.043Z,90.03
2019-02-17T05:14:54.836Z,110.42
2019-02-17T05:17:22.654Z,80.45
2019-02-17T05:20:21.089Z,103.35
2019-02-17T05:22:48.906Z,69.37
2019-02-17T05:25:18.267Z,95.65
2019-02-17T05:27:46.070Z,75.52
2019-02-17T05:30:13.850Z,84.87
2019-02-17T05:32:41.684Z,90.75
2019-02-17T05:35:21.739Z,69.35
2019-02-17T05:37:49.610Z,121.25
2019-02-17T05:40:17.387Z,63.78
2019-02-17T05:42:45.248Z,77.30
2019-02-17T05:45:13.071Z,67.40
2019-02-17T05:47:40.890Z,61.98
2019-02-17T05:50:08.683Z,86.42
2019-02-17T05:52:36.480Z,101.58
2019-02-17T05:55:04.695Z,108.95
2019-02-17T05:57:32.530Z,78.57
2019-02-17T06:00:07.073Z,76.22
2019-02-17T06:02:34.901Z,36.05
2019-02-17T06:05:02.768Z,121.92
2019-02-17T06:07:30.564Z,66.67
2019-02-17T06:10:04.060Z,101.72
2019-02-17T06:12:31.872Z,52.98
2019-02-17T06:14:59.669Z,109.32
2019-02-17T06:17:27.488Z,135.03
2019-02-17T06:20:25.834Z,231.23
2019-02-17T06:22:53.678Z,121.40
2019-02-17T06:25:21.508Z,152.80
2019-02-17T06:28:04.400Z,85.85
2019-02-17T06:30:32.215Z,118.35
2019-02-17T06:33:00.045Z,176.42
2019-02-17T06:35:27.877Z,149.60
2019-02-17T06:38:15.161Z,50.65
2019-02-17T06:40:42.970Z,130.78
2019-02-17T06:43:10.765Z,87.17
2019-02-17T06:45:38.605Z,94.65
2019-02-17T06:48:30.871Z,154.45
2019-02-17T06:50:58.706Z,72.70
2019-02-17T06:53:26.512Z,70.05
2019-02-17T06:56:05.001Z,38.10
2019-02-17T06:58:37.850Z,144.65
2019-02-17T07:01:05.691Z,101.70
2019-02-17T07:03:33.521Z,64.00
2019-02-17T07:06:39.571Z,49.55
2019-02-17T07:09:07.504Z,153.70
2019-02-17T07:11:35.336Z,94.87
2019-02-17T07:14:03.119Z,74.62
2019-02-17T07:16:30.895Z,70.25
2019-02-17T07:18:58.933Z,62.33
2019-02-17T07:21:26.707Z,148.25
2019-02-17T07:23:54.580Z,125.65
2019-02-17T07:26:22.466Z,99.92
2019-02-17T07:28:50.626Z,64.60
2019-02-17T07:31:18.394Z,83.57
2019-02-17T07:33:46.274Z,102.70
2019-02-17T07:36:14.026Z,93.73
2019-02-17T07:38:41.989Z,98.23
2019-02-17T07:41:09.799Z,44.00
2019-02-17T07:43:37.623Z,108.50
2019-02-17T07:46:05.448Z,107.57
2019-02-17T07:48:48.448Z,77.27
2019-02-17T07:51:16.259Z,58.17
2019-02-17T07:53:44.063Z,79.73
2019-02-17T07:56:11.836Z,47.43
2019-02-17T07:58:39.772Z,87.53
2019-02-17T08:01:07.586Z,58.87
2019-02-17T08:03:35.433Z,90.40
2019-02-17T08:06:03.215Z,62.13
2019-02-17T08:08:31.024Z,54.67
2019-02-17T08:11:04.069Z,81.40
2019-02-17T08:13:28.444Z,33.07
2019-02-17T08:15:56.242Z,58.47
2019-02-17T08:18:29.294Z,47.83
2019-02-17T08:20:57.097Z,22.97
2019-02-17T08:23:24.884Z,34.87
2019-02-17T08:25:52.723Z,34.83
2019-02-17T08:28:20.643Z,56.97
2019-02-17T08:30:48.408Z,52.00
2019-02-17T08:33:16.227Z,40.07
2019-02-17T08:35:44.021Z,43.40
2019-02-17T08:38:22.198Z,118.90
2019-02-17T08:40:52.352Z,47.07
2019-02-17T08:43:20.154Z,40.40
2019-02-17T08:45:47.929Z,36.57
2019-02-17T08:48:16.164Z,42.30
2019-02-17T08:50:46.662Z,35.60
2019-02-17T08:53:14.539Z,33.33
2019-02-17T08:55:42.320Z,39.83
2019-02-17T08:58:15.294Z,30.27
2019-02-17T09:00:43.099Z,25.97
2019-02-17T09:03:10.893Z,18.50
2019-02-17T09:05:44.137Z,18.37
2019-02-17T09:08:10.863Z,15.90
2019-02-17T09:10:38.776Z,16.03
2019-02-17T09:13:06.602Z,15.47
2019-02-17T09:15:34.411Z,13.80
2019-02-17T09:18:03.323Z,15.50
2019-02-17T09:20:31.133Z,13.33
2019-02-17T09:22:58.867Z,13.67
2019-02-17T09:25:26.645Z,15.23
2019-02-17T09:27:59.549Z,14.27
2019-02-17T09:30:27.377Z,12.53
2019-02-17T09:32:55.133Z,15.97
2019-02-17T09:35:22.983Z,15.57
2019-02-17T09:37:50.767Z,20.93
2019-02-17T09:40:18.583Z,19.77
2019-02-17T09:42:46.361Z,19.93
2019-02-17T09:45:14.227Z,16.97
2019-02-17T09:47:42.140Z,16.33
2019-02-17T09:50:11.349Z,16.00
2019-02-17T09:52:39.166Z,17.07
2019-02-17T09:55:07.368Z,15.00
2019-02-17T09:57:35.141Z,17.80
2019-02-17T10:00:10.339Z,34.37
2019-02-17T10:02:38.143Z,18.93
2019-02-17T10:05:06.105Z,17.90
2019-02-17T10:07:33.954Z,17.00
2019-02-17T10:10:02.005Z,19.33
2019-02-17T10:12:29.875Z,17.67
2019-02-17T10:14:57.689Z,22.87
2019-02-17T10:17:25.886Z,16.70
2019-02-17T10:20:18.363Z,17.47
2019-02-17T10:22:46.179Z,17.70
2019-02-17T10:25:13.989Z,20.57
2019-02-17T10:27:41.790Z,18.00
2019-02-17T10:30:11.455Z,18.43
2019-02-17T10:32:39.446Z,19.63
2019-02-17T10:35:07.365Z,20.50
2019-02-17T10:37:35.190Z,17.83
2019-02-17T10:40:03.876Z,20.13
2019-02-17T10:42:31.777Z,20.70
2019-02-17T10:44:59.593Z,21.53
2019-02-17T10:47:27.466Z,44.07
2019-02-17T10:49:55.668Z,30.80
2019-02-17T10:52:23.522Z,18.77
2019-02-17T10:54:51.411Z,21.93
2019-02-17T10:57:19.208Z,20.57
2019-02-17T10:59:47.011Z,26.70
2019-02-17T11:02:14.766Z,42.90
2019-02-17T11:04:42.593Z,29.43
2019-02-17T11:07:10.434Z,23.73
2019-02-17T11:09:38.207Z,23.27
2019-02-17T11:12:06.009Z,19.90
2019-02-17T11:14:33.774Z,20.07
2019-02-17T11:17:01.596Z,22.50
2019-02-17T11:19:39.961Z,32.00
2019-02-17T11:22:07.781Z,44.03
2019-02-17T11:24:35.589Z,30.20
2019-02-17T11:27:03.404Z,38.83
2019-02-17T11:29:31.333Z,20.40
2019-02-17T11:31:59.148Z,20.63
2019-02-17T11:34:27.020Z,19.17
2019-02-17T11:36:54.770Z,23.53
2019-02-17T11:39:22.694Z,21.07
2019-02-17T11:41:50.493Z,19.37
2019-02-17T11:44:18.321Z,22.97
2019-02-17T11:46:46.150Z,19.13
2019-02-17T11:49:33.479Z,26.00
2019-02-17T11:52:01.250Z,25.50
2019-02-17T11:54:29.101Z,22.30
2019-02-17T11:56:56.942Z,24.67
2019-02-17T11:59:24.766Z,22.77
2019-02-17T12:01:52.523Z,24.70
2019-02-17T12:04:20.366Z,20.97
2019-02-17T12:06:48.138Z,24.27
2019-02-17T12:09:16.080Z,21.57
2019-02-17T12:11:43.939Z,23.63
2019-02-17T12:14:11.830Z,22.23
2019-02-17T12:16:39.688Z,22.87
2019-02-17T12:19:12.722Z,21.07
2019-02-17T12:21:51.101Z,21.97
2019-02-17T12:24:21.567Z,25.37
2019-02-17T12:27:21.231Z,25.70
2019-02-17T12:29:52.835Z,25.40
2019-02-17T12:32:24.456Z,21.23
2019-02-17T12:34:52.348Z,21.93
2019-02-17T12:37:20.160Z,23.87
2019-02-17T12:39:48.016Z,23.63
2019-02-17T12:42:15.822Z,26.90
2019-02-17T12:44:43.658Z,22.97
2019-02-17T12:47:11.534Z,26.50
2019-02-17T12:49:49.558Z,24.77
2019-02-17T12:52:17.349Z,24.63
2019-02-17T12:54:47.409Z,23.07
2019-02-17T12:57:15.183Z,22.10
2019-02-17T12:59:43.027Z,24.67
2019-02-17T13:02:10.874Z,22.30
2019-02-17T13:04:41.685Z,21.43
2019-02-17T13:07:09.467Z,22.57
2019-02-17T13:09:37.303Z,23.60
2019-02-17T13:12:05.102Z,24.83
2019-02-17T13:14:32.905Z,21.77
2019-02-17T13:17:11.962Z,22.20
2019-02-17T13:19:41.379Z,22.33
2019-02-17T13:22:09.266Z,24.43
2019-02-17T13:24:37.073Z,24.40
2019-02-17T13:27:04.920Z,23.77
2019-02-17T13:29:40.395Z,23.37
2019-02-17T13:32:08.203Z,23.10
2019-02-17T13:34:36.077Z,24.53
2019-02-17T13:37:03.828Z,25.60
2019-02-17T13:39:31.683Z,23.43
2019-02-17T13:41:59.498Z,22.80
2019-02-17T13:44:27.325Z,36.57
2019-02-17T13:46:55.064Z,23.27
2019-02-17T13:49:22.918Z,24.60
2019-02-17T13:51:51.141Z,25.60
2019-02-17T13:54:19.989Z,23.73
2019-02-17T13:56:48.294Z,25.87
2019-02-17T13:59:16.193Z,27.17
2019-02-17T14:01:44.078Z,69.37
2019-02-17T14:04:11.903Z,28.50
2019-02-17T14:06:39.765Z,26.33
2019-02-17T14:09:07.985Z,24.93
2019-02-17T14:11:35.876Z,28.67
2019-02-17T14:14:03.710Z,24.37
2019-02-17T14:16:31.621Z,26.30
2019-02-17T14:18:59.509Z,27.30
2019-02-17T14:21:30.083Z,32.97
2019-02-17T14:23:58.244Z,28.63
2019-02-17T14:26:26.149Z,24.13
2019-02-17T14:28:53.990Z,28.30
2019-02-17T14:31:21.885Z,25.43
2019-02-17T14:33:58.377Z,30.27
2019-02-17T14:36:20.235Z,27.10
2019-02-17T14:38:48.075Z,28.53
2019-02-17T14:41:18.615Z,30.30
2019-02-17T14:43:46.499Z,25.23
2019-02-17T14:46:14.441Z,27.60
2019-02-17T14:48:43.799Z,25.20
2019-02-17T15:04:17.103Z,26.83
2019-02-17T15:06:44.884Z,30.60
2019-02-17T15:09:12.856Z,30.03
2019-02-17T15:11:40.648Z,27.57
2019-02-17T15:14:10.859Z,29.77
2019-02-17T15:16:38.616Z,30.03
2019-02-17T15:19:06.660Z,28.17
2019-02-17T15:21:34.472Z,29.27
2019-02-17T15:24:02.401Z,27.47
2019-02-17T15:26:30.216Z,31.53
2019-02-17T15:28:58.354Z,31.77
2019-02-17T15:31:30.935Z,28.40
2019-02-17T15:33:58.659Z,27.77
2019-02-17T15:36:26.482Z,29.17
2019-02-17T15:38:54.566Z,28.17
2019-02-17T15:41:22.370Z,34.00
2019-02-17T15:43:50.586Z,35.83
2019-02-17T15:46:18.406Z,35.70
2019-02-17T15:48:46.223Z,44.23
2019-02-17T15:51:17.021Z,27.37
2019-02-17T15:53:44.813Z,29.00
2019-02-17T15:56:12.710Z,28.50
2019-02-17T15:58:40.520Z,26.93
2019-02-17T16:01:08.344Z,28.73
2019-02-17T16:03:36.220Z,30.07
2019-02-17T16:06:04.008Z,31.23
2019-02-17T16:08:31.881Z,33.83
2019-02-17T16:10:59.689Z,35.37
2019-02-17T16:13:27.495Z,40.53
2019-02-17T16:15:55.377Z,37.17
2019-02-17T16:18:23.221Z,34.70
2019-02-17T16:20:51.040Z,34.93
2019-02-17T16:23:18.849Z,32.17
2019-02-17T16:25:46.714Z,33.27
2019-02-17T16:28:15.382Z,34.00
2019-02-17T16:30:43.156Z,34.33
2019-02-17T16:33:11.097Z,40.93
2019-02-17T16:35:38.910Z,37.83
2019-02-17T16:38:06.838Z,36.33
2019-02-17T16:40:34.623Z,39.40
2019-02-17T16:43:02.864Z,44.83
2019-02-17T16:45:30.728Z,42.33
2019-02-17T16:47:58.587Z,40.57
2019-02-17T16:50:26.442Z,42.90
2019-02-17T16:52:59.115Z,43.23
2019-02-17T16:55:29.154Z,42.73
2019-02-17T16:58:01.665Z,37.87
2019-02-17T17:00:31.283Z,36.20
2019-02-17T17:03:10.039Z,36.27
2019-02-17T17:05:39.635Z,42.13
2019-02-17T17:08:14.809Z,42.00
2019-02-17T17:10:42.636Z,36.03
2019-02-17T17:13:10.498Z,42.57
2019-02-17T17:15:38.291Z,40.17
2019-02-17T17:18:06.107Z,41.33
2019-02-17T17:20:34.210Z,38.10
2019-02-17T17:23:01.951Z,41.67
2019-02-17T17:25:29.797Z,55.03
2019-02-17T17:27:57.630Z,45.03
2019-02-17T17:30:25.508Z,36.67
2019-02-17T17:32:53.305Z,36.77
2019-02-17T17:35:21.170Z,41.27
2019-02-17T17:38:08.434Z,44.73
2019-02-17T17:40:48.747Z,48.37
2019-02-17T17:43:16.600Z,46.00
2019-02-17T17:45:44.398Z,44.10
2019-02-17T17:48:12.265Z,55.00
2019-02-17T17:51:10.599Z,52.40
2019-02-17T17:53:38.425Z,43.40
2019-02-17T17:56:06.286Z,45.67
2019-02-17T17:58:34.085Z,42.43
2019-02-17T18:01:02.069Z,44.23
2019-02-17T18:03:29.877Z,37.47
2019-02-17T18:05:57.737Z,36.00
2019-02-17T18:08:25.555Z,35.97
2019-02-17T18:10:53.473Z,33.73
2019-02-17T18:13:22.046Z,37.97
2019-02-17T18:15:49.943Z,35.50
2019-02-17T18:18:17.758Z,36.57
2019-02-17T18:20:45.634Z,35.53
2019-02-17T18:23:13.450Z,39.03
2019-02-17T18:25:41.330Z,42.73
2019-02-17T18:28:09.195Z,49.00
2019-02-17T18:30:37.068Z,46.57
2019-02-17T18:33:05.939Z,47.30
2019-02-17T18:35:35.258Z,39.63
2019-02-17T18:38:03.778Z,38.00
2019-02-17T18:40:31.655Z,36.10
2019-02-17T18:42:59.539Z,34.33
2019-02-17T18:45:27.379Z,34.43
2019-02-17T18:47:55.254Z,39.63
2019-02-17T18:50:28.375Z,39.73
2019-02-17T18:52:56.248Z,36.87
2019-02-17T18:55:24.054Z,37.80
2019-02-17T18:57:51.899Z,35.30
2019-02-17T19:00:20.016Z,37.57
2019-02-17T19:02:47.939Z,35.83
2019-02-17T19:05:15.843Z,50.67
2019-02-17T19:07:43.761Z,51.47
2019-02-17T19:10:16.657Z,53.17
2019-02-17T19:12:44.719Z,47.60
2019-02-17T19:15:12.950Z,41.97
2019-02-17T19:17:40.874Z,43.37
2019-02-17T19:20:12.135Z,45.53
2019-02-17T19:22:40.062Z,46.23
2019-02-17T19:25:08.303Z,52.50
2019-02-17T19:27:36.418Z,41.93
2019-02-17T19:30:05.162Z,41.77
2019-02-17T19:32:33.054Z,42.37
2019-02-17T19:35:01.065Z,40.47
2019-02-17T19:37:28.892Z,42.43
2019-02-17T19:40:02.110Z,37.73
2019-02-17T19:42:29.989Z,39.23
2019-02-17T19:44:57.840Z,36.50
2019-02-17T19:47:25.804Z,38.47
2019-02-17T19:49:58.717Z,38.13
2019-02-17T19:52:26.593Z,36.67
2019-02-17T19:54:54.535Z,40.83
2019-02-17T19:57:22.459Z,38.87
2019-02-17T19:59:50.366Z,38.00
2019-02-17T20:02:21.737Z,39.07
2019-02-17T20:05:05.844Z,39.50
2019-02-17T20:07:33.694Z,34.97
2019-02-17T20:10:01.579Z,36.73
2019-02-17T20:12:29.409Z,30.30
2019-02-17T20:14:57.246Z,36.87
2019-02-17T20:17:25.157Z,40.37
2019-02-17T20:19:53.070Z,37.20
2019-02-17T20:22:21.019Z,39.77
2019-02-17T20:24:48.846Z,44.67
2019-02-17T20:27:16.702Z,41.93
2019-02-17T20:29:44.522Z,43.67
2019-02-17T20:32:12.420Z,42.73
2019-02-17T20:34:40.248Z,44.97
2019-02-17T20:37:08.113Z,50.63
2019-02-17T20:39:35.919Z,45.67
2019-02-17T20:42:03.798Z,44.60
2019-02-17T20:44:31.678Z,42.47
2019-02-17T20:47:18.946Z,54.00
2019-02-17T20:49:46.835Z,38.50
2019-02-17T20:52:14.675Z,37.80
2019-02-17T20:54:42.546Z,42.90
2019-02-17T20:57:10.405Z,41.90
2019-02-17T20:59:38.526Z,41.73
2019-02-17T21:02:07.087Z,47.57
2019-02-17T21:04:35.000Z,42.03
2019-02-17T21:07:02.861Z,41.00
2019-02-17T21:09:30.647Z,44.67
2019-02-17T21:12:04.692Z,42.07
2019-02-17T21:14:33.096Z,43.97
2019-02-17T21:17:03.741Z,54.57
2019-02-17T21:19:34.001Z,50.83
2019-02-17T21:22:01.933Z,46.80
2019-02-17T21:24:29.792Z,49.83
2019-02-17T21:26:57.591Z,44.60
2019-02-17T21:29:30.845Z,50.37
2019-02-17T21:31:58.693Z,41.87
2019-02-17T21:34:26.580Z,38.83
2019-02-17T21:36:54.431Z,52.37
2019-02-17T21:39:27.462Z,60.07
2019-02-17T21:41:57.066Z,48.73
2019-02-17T21:44:24.884Z,60.70
2019-02-17T21:46:52.735Z,57.93
2019-02-17T21:49:20.607Z,91.60
2019-02-17T21:51:48.425Z,49.03
2019-02-17T21:54:16.259Z,45.37
2019-02-17T21:56:44.067Z,38.50
2019-02-17T21:59:12.011Z,36.17
2019-02-17T22:01:39.850Z,49.80
2019-02-17T22:04:07.645Z,58.30
2019-02-17T22:06:35.458Z,48.10
2019-02-17T22:09:05.518Z,47.30
2019-02-17T22:11:33.797Z,46.03
2019-02-17T22:14:01.600Z,53.17
2019-02-17T22:16:29.388Z,49.87
2019-02-17T22:18:57.203Z,57.13
2019-02-17T22:21:24.976Z,49.60
2019-02-17T22:23:52.776Z,48.73
2019-02-17T22:26:20.551Z,54.87
2019-02-17T22:28:48.390Z,54.73
2019-02-17T22:31:16.210Z,52.27
2019-02-17T22:33:43.965Z,46.27
2019-02-17T22:36:12.494Z,45.97
2019-02-17T22:38:40.288Z,37.03
2019-02-17T22:41:08.073Z,44.47
2019-02-17T22:43:35.889Z,41.63
2019-02-17T22:46:03.720Z,56.03
2019-02-17T22:48:31.442Z,59.73
2019-02-17T22:50:59.401Z,59.07
2019-02-17T22:53:27.259Z,54.13
2019-02-17T22:55:55.059Z,49.87
2019-02-17T22:58:22.826Z,59.27
2019-02-17T23:01:01.241Z,59.73
2019-02-17T23:03:30.321Z,64.13
2019-02-17T23:05:58.138Z,54.10
2019-02-17T23:08:25.911Z,49.77
2019-02-17T23:10:53.726Z,45.87
2019-02-17T23:13:40.943Z,42.73
2019-02-17T23:16:08.767Z,38.53
2019-02-17T23:18:36.551Z,34.93
2019-02-17T23:21:04.394Z,40.93
2019-02-17T23:23:32.230Z,48.20
2019-02-17T23:26:00.037Z,46.63
2019-02-17T23:28:27.855Z,40.50
2019-02-17T23:31:15.316Z,41.80
2019-02-17T23:33:43.123Z,39.53
2019-02-17T23:36:10.947Z,39.97
2019-02-17T23:38:38.785Z,37.20
2019-02-17T23:41:06.678Z,31.23
2019-02-17T23:43:34.433Z,36.30
2019-02-17T23:46:02.264Z,36.25
2019-02-17T23:48:30.075Z,31.63
2019-02-17T23:50:57.936Z,29.13
2019-02-17T23:53:25.795Z,29.07
2019-02-17T23:55:53.611Z,33.63
2019-02-17T23:58:21.439Z,30.33
